createdAt,value
2017-12-24T00:00:03.860Z,1019.95
2017-12-24T00:00:44.436Z,1019.95
2017-12-24T00:01:25.001Z,1019.85
2017-12-24T00:02:05.538Z,1019.87
2017-12-24T00:02:46.073Z,1019.86
2017-12-24T00:03:26.643Z,1019.92
2017-12-24T00:04:07.161Z,1019.88
2017-12-24T00:04:47.711Z,1019.83
2017-12-24T00:05:28.243Z,1019.88
2017-12-24T00:06:08.800Z,1019.87
2017-12-24T00:06:49.320Z,1019.81
2017-12-24T00:07:29.832Z,1019.79
2017-12-24T00:08:10.374Z,1019.83
2017-12-24T00:08:51.537Z,1019.82
2017-12-24T00:09:32.125Z,1019.84
2017-12-24T00:10:12.702Z,1019.8
2017-12-24T00:10:53.193Z,1019.71
2017-12-24T00:11:33.742Z,1019.8
2017-12-24T00:12:14.296Z,1019.77
2017-12-24T00:12:55.544Z,1019.78
2017-12-24T00:13:35.399Z,1019.8
2017-12-24T00:14:15.956Z,1019.84
2017-12-24T00:14:56.516Z,1019.83
2017-12-24T00:15:37.052Z,1019.82
2017-12-24T00:16:17.619Z,1019.8
2017-12-24T00:16:58.159Z,1019.81
2017-12-24T00:17:38.731Z,1019.85
2017-12-24T00:18:19.287Z,1019.84
2017-12-24T00:18:59.823Z,1019.81
2017-12-24T00:19:40.364Z,1019.85
2017-12-24T00:20:20.872Z,1019.81
2017-12-24T00:21:01.399Z,1019.81
2017-12-24T00:21:41.979Z,1019.83
2017-12-24T00:22:22.513Z,1019.79
2017-12-24T00:23:03.046Z,1019.76
2017-12-24T00:23:43.588Z,1019.84
2017-12-24T00:24:24.125Z,1019.85
2017-12-24T00:25:04.676Z,1019.78
2017-12-24T00:25:45.251Z,1019.79
2017-12-24T00:26:25.829Z,1019.82
2017-12-24T00:27:06.490Z,1019.81
2017-12-24T00:27:47.007Z,1019.77
2017-12-24T00:28:27.547Z,1019.76
2017-12-24T00:29:08.106Z,1019.76
2017-12-24T00:29:48.678Z,1019.7
2017-12-24T00:30:29.214Z,1019.68
2017-12-24T00:31:09.742Z,1019.74
2017-12-24T00:31:50.275Z,1019.75
2017-12-24T00:32:30.830Z,1019.77
2017-12-24T00:33:11.395Z,1019.67
2017-12-24T00:33:52.025Z,1019.74
2017-12-24T00:34:32.573Z,1019.73
2017-12-24T00:35:13.128Z,1019.72
2017-12-24T00:35:53.668Z,1019.71
2017-12-24T00:36:34.210Z,1019.74
2017-12-24T00:37:14.775Z,1019.7
2017-12-24T00:37:55.308Z,1019.69
2017-12-24T00:38:35.839Z,1019.73
2017-12-24T00:39:16.398Z,1019.76
2017-12-24T00:39:56.933Z,1019.7
2017-12-24T00:40:37.472Z,1019.64
2017-12-24T00:41:17.996Z,1019.66
2017-12-24T00:41:58.530Z,1019.69
2017-12-24T00:42:39.076Z,1019.73
2017-12-24T00:43:19.652Z,1019.8
2017-12-24T00:44:00.201Z,1019.72
2017-12-24T00:44:40.739Z,1019.67
2017-12-24T00:45:21.279Z,1019.71
2017-12-24T00:46:01.829Z,1019.69
2017-12-24T00:46:42.409Z,1019.64
2017-12-24T00:47:22.962Z,1019.69
2017-12-24T00:48:03.481Z,1019.59
2017-12-24T00:48:44.017Z,1019.6
2017-12-24T00:49:24.578Z,1019.65
2017-12-24T00:50:05.108Z,1019.64
2017-12-24T00:50:45.684Z,1019.63
2017-12-24T00:51:26.232Z,1019.61
2017-12-24T00:52:06.787Z,1019.61
2017-12-24T00:52:47.315Z,1019.61
2017-12-24T00:53:27.873Z,1019.59
2017-12-24T00:54:08.434Z,1019.58
2017-12-24T00:54:48.950Z,1019.64
2017-12-24T00:55:29.495Z,1019.58
2017-12-24T00:56:10.016Z,1019.6
2017-12-24T00:56:50.543Z,1019.59
2017-12-24T00:57:31.085Z,1019.63
2017-12-24T00:58:11.642Z,1019.6
2017-12-24T00:58:52.204Z,1019.58
2017-12-24T00:59:32.774Z,1019.63
2017-12-24T01:00:13.297Z,1019.62
2017-12-24T01:00:53.870Z,1019.62
2017-12-24T01:01:34.417Z,1019.7
2017-12-24T01:02:14.933Z,1019.69
2017-12-24T01:02:55.479Z,1019.66
2017-12-24T01:03:36.044Z,1019.64
2017-12-24T01:04:16.573Z,1019.62
2017-12-24T01:04:57.148Z,1019.6
2017-12-24T01:05:37.674Z,1019.64
2017-12-24T01:06:18.236Z,1019.62
2017-12-24T01:06:58.798Z,1019.64
2017-12-24T01:07:39.361Z,1019.6
2017-12-24T01:08:19.914Z,1019.67
2017-12-24T01:09:00.454Z,1019.66
2017-12-24T01:09:41.035Z,1019.66
2017-12-24T01:10:21.556Z,1019.66
2017-12-24T01:11:02.087Z,1019.65
2017-12-24T01:11:42.660Z,1019.62
2017-12-24T01:12:23.190Z,1019.58
2017-12-24T01:13:03.730Z,1019.58
2017-12-24T01:13:44.274Z,1019.6
2017-12-24T01:14:24.830Z,1019.59
2017-12-24T01:15:05.395Z,1019.53
2017-12-24T01:15:45.934Z,1019.55
2017-12-24T01:16:26.474Z,1019.54
2017-12-24T01:17:06.986Z,1019.51
2017-12-24T01:17:47.546Z,1019.5
2017-12-24T01:18:28.063Z,1019.5
2017-12-24T01:19:08.594Z,1019.45
2017-12-24T01:19:49.135Z,1019.54
2017-12-24T01:20:29.665Z,1019.45
2017-12-24T01:21:10.217Z,1019.45
2017-12-24T01:21:50.755Z,1019.44
2017-12-24T01:22:31.290Z,1019.42
2017-12-24T01:23:11.860Z,1019.46
2017-12-24T01:23:52.388Z,1019.4
2017-12-24T01:24:32.925Z,1019.37
2017-12-24T01:25:13.463Z,1019.34
2017-12-24T01:25:54.080Z,1019.36
2017-12-24T01:26:34.589Z,1019.3
2017-12-24T01:27:15.135Z,1019.31
2017-12-24T01:27:55.677Z,1019.32
2017-12-24T01:28:36.227Z,1019.31
2017-12-24T01:29:16.781Z,1019.23
2017-12-24T01:29:57.353Z,1019.3
2017-12-24T01:30:37.869Z,1019.31
2017-12-24T01:31:18.421Z,1019.3
2017-12-24T01:31:59.016Z,1019.31
2017-12-24T01:32:39.465Z,1019.39
2017-12-24T01:33:20.011Z,1019.36
2017-12-24T01:34:00.527Z,1019.41
2017-12-24T01:34:41.083Z,1019.33
2017-12-24T01:35:21.608Z,1019.35
2017-12-24T01:36:02.154Z,1019.37
2017-12-24T01:36:42.704Z,1019.38
2017-12-24T01:37:23.266Z,1019.47
2017-12-24T01:38:03.834Z,1019.45
2017-12-24T01:38:44.358Z,1019.41
2017-12-24T01:39:24.890Z,1019.38
2017-12-24T01:40:05.453Z,1019.41
2017-12-24T01:40:45.985Z,1019.36
2017-12-24T01:41:26.557Z,1019.42
2017-12-24T01:42:07.067Z,1019.34
2017-12-24T01:42:47.638Z,1019.41
2017-12-24T01:43:28.138Z,1019.43
2017-12-24T01:44:08.756Z,1019.39
2017-12-24T01:44:49.274Z,1019.42
2017-12-24T01:45:29.834Z,1019.43
2017-12-24T01:46:10.390Z,1019.38
2017-12-24T01:46:50.954Z,1019.38
2017-12-24T01:47:31.475Z,1019.38
2017-12-24T01:48:12.040Z,1019.36
2017-12-24T01:48:52.558Z,1019.31
2017-12-24T01:49:33.124Z,1019.37
2017-12-24T01:50:13.668Z,1019.38
2017-12-24T01:50:54.223Z,1019.3
2017-12-24T01:51:34.757Z,1019.34
2017-12-24T01:52:15.304Z,1019.34
2017-12-24T01:52:55.831Z,1019.32
2017-12-24T01:53:36.359Z,1019.31
2017-12-24T01:54:16.962Z,1019.22
2017-12-24T01:54:57.532Z,1019.23
2017-12-24T01:55:38.075Z,1019.21
2017-12-24T01:56:18.605Z,1019.2
2017-12-24T01:56:59.126Z,1019.21
2017-12-24T01:57:39.678Z,1019.2
2017-12-24T01:58:20.221Z,1019.17
2017-12-24T01:59:00.783Z,1019.19
2017-12-24T01:59:41.349Z,1019.22
2017-12-24T02:00:21.886Z,1019.2
2017-12-24T02:01:02.433Z,1019.2
2017-12-24T02:01:43.005Z,1019.25
2017-12-24T02:02:23.541Z,1019.23
2017-12-24T02:03:04.084Z,1019.26
2017-12-24T02:03:44.684Z,1019.3
2017-12-24T02:04:25.183Z,1019.25
2017-12-24T02:05:05.745Z,1019.25
2017-12-24T02:05:46.309Z,1019.24
2017-12-24T02:06:26.858Z,1019.26
2017-12-24T02:07:07.389Z,1019.22
2017-12-24T02:07:47.953Z,1019.24
2017-12-24T02:08:28.473Z,1019.23
2017-12-24T02:09:09.044Z,1019.23
2017-12-24T02:09:49.586Z,1019.28
2017-12-24T02:10:30.149Z,1019.14
2017-12-24T02:11:10.684Z,1019.22
2017-12-24T02:11:51.248Z,1019.18
2017-12-24T02:12:31.843Z,1019.17
2017-12-24T02:13:12.371Z,1019.19
2017-12-24T02:13:52.915Z,1019.17
2017-12-24T02:14:33.460Z,1019.15
2017-12-24T02:15:14.019Z,1019.19
2017-12-24T02:15:54.575Z,1019.23
2017-12-24T02:16:35.127Z,1019.2
2017-12-24T02:17:15.636Z,1019.22
2017-12-24T02:17:56.165Z,1019.2
2017-12-24T02:18:36.760Z,1019.21
2017-12-24T02:19:17.285Z,1019.16
2017-12-24T02:19:57.841Z,1019.22
2017-12-24T02:20:38.377Z,1019.2
2017-12-24T02:21:18.894Z,1019.21
2017-12-24T02:21:59.440Z,1019.15
2017-12-24T02:22:39.968Z,1019.12
2017-12-24T02:23:20.519Z,1019.1
2017-12-24T02:24:01.031Z,1019.13
2017-12-24T02:24:41.595Z,1019.07
2017-12-24T02:25:22.145Z,1019.1
2017-12-24T02:26:02.714Z,1019.16
2017-12-24T02:26:43.264Z,1019.1
2017-12-24T02:27:23.803Z,1019.07
2017-12-24T02:28:04.328Z,1019.08
2017-12-24T02:28:44.816Z,1019.13
2017-12-24T02:29:25.355Z,1019.12
2017-12-24T02:30:05.912Z,1019.08
2017-12-24T02:30:46.432Z,1019.12
2017-12-24T02:31:26.970Z,1019.03
2017-12-24T02:32:07.524Z,1019.09
2017-12-24T02:32:48.056Z,1019.06
2017-12-24T02:33:28.588Z,1019.06
2017-12-24T02:34:09.165Z,1019.06
2017-12-24T02:34:49.696Z,1019.03
2017-12-24T02:35:30.254Z,1019.01
2017-12-24T02:36:10.795Z,1019.05
2017-12-24T02:36:51.373Z,1018.99
2017-12-24T02:37:31.910Z,1018.92
2017-12-24T02:38:12.432Z,1018.99
2017-12-24T02:38:53.054Z,1018.98
2017-12-24T02:39:33.615Z,1018.89
2017-12-24T02:40:14.161Z,1018.93
2017-12-24T02:40:54.689Z,1018.93
2017-12-24T02:41:35.254Z,1018.95
2017-12-24T02:42:15.804Z,1018.91
2017-12-24T02:42:56.366Z,1018.91
2017-12-24T02:43:36.882Z,1018.93
2017-12-24T02:44:17.412Z,1018.9
2017-12-24T02:44:57.949Z,1018.94
2017-12-24T02:45:38.519Z,1018.96
2017-12-24T02:46:19.030Z,1018.96
2017-12-24T02:46:59.597Z,1018.94
2017-12-24T02:47:40.121Z,1018.95
2017-12-24T02:48:20.680Z,1018.94
2017-12-24T02:49:01.232Z,1018.93
2017-12-24T02:49:41.768Z,1018.95
2017-12-24T02:50:22.349Z,1018.99
2017-12-24T02:51:02.872Z,1018.93
2017-12-24T02:51:43.449Z,1018.88
2017-12-24T02:52:23.976Z,1018.9
2017-12-24T02:53:04.495Z,1018.92
2017-12-24T02:53:45.057Z,1018.87
2017-12-24T02:54:25.597Z,1018.88
2017-12-24T02:55:06.153Z,1018.84
2017-12-24T02:55:46.699Z,1018.89
2017-12-24T02:56:27.242Z,1018.87
2017-12-24T02:57:07.804Z,1018.8
2017-12-24T02:57:48.362Z,1018.8
2017-12-24T02:58:28.901Z,1018.75
2017-12-24T02:59:09.469Z,1018.83
2017-12-24T02:59:50.020Z,1018.84
2017-12-24T03:00:30.564Z,1018.9
2017-12-24T03:01:11.078Z,1018.86
2017-12-24T03:01:51.601Z,1018.84
2017-12-24T03:02:32.256Z,1018.88
2017-12-24T03:03:12.830Z,1018.93
2017-12-24T03:03:53.365Z,1018.9
2017-12-24T03:04:33.880Z,1018.92
2017-12-24T03:05:14.440Z,1018.9
2017-12-24T03:05:54.970Z,1018.88
2017-12-24T03:06:35.535Z,1018.88
2017-12-24T03:07:16.086Z,1018.88
2017-12-24T03:07:56.638Z,1018.86
2017-12-24T03:08:37.192Z,1018.82
2017-12-24T03:09:17.733Z,1018.83
2017-12-24T03:09:58.277Z,1018.82
2017-12-24T03:10:38.826Z,1018.85
2017-12-24T03:11:19.378Z,1018.69
2017-12-24T03:12:00.233Z,1018.83
2017-12-24T03:12:40.749Z,1018.82
2017-12-24T03:13:21.286Z,1018.89
2017-12-24T03:14:01.814Z,1018.86
2017-12-24T03:14:42.384Z,1018.86
2017-12-24T03:15:22.938Z,1018.85
2017-12-24T03:16:03.422Z,1018.85
2017-12-24T03:16:43.988Z,1018.82
2017-12-24T03:17:24.522Z,1018.71
2017-12-24T03:18:05.057Z,1018.81
2017-12-24T03:18:45.658Z,1018.73
2017-12-24T03:19:26.190Z,1018.8
2017-12-24T03:20:06.775Z,1018.78
2017-12-24T03:20:47.328Z,1018.73
2017-12-24T03:21:27.817Z,1018.77
2017-12-24T03:22:08.384Z,1018.73
2017-12-24T03:22:48.923Z,1018.77
2017-12-24T03:23:29.429Z,1018.72
2017-12-24T03:24:10.015Z,1018.67
2017-12-24T03:24:50.545Z,1018.71
2017-12-24T03:25:31.065Z,1018.64
2017-12-24T03:26:11.639Z,1018.64
2017-12-24T03:26:52.164Z,1018.63
2017-12-24T03:27:32.706Z,1018.66
2017-12-24T03:28:14.102Z,1018.64
2017-12-24T03:28:53.765Z,1018.65
2017-12-24T03:29:34.322Z,1018.63
2017-12-24T03:30:14.869Z,1018.74
2017-12-24T03:30:55.411Z,1018.6
2017-12-24T03:31:35.950Z,1018.68
2017-12-24T03:32:16.511Z,1018.67
2017-12-24T03:32:57.043Z,1018.68
2017-12-24T03:33:37.604Z,1018.73
2017-12-24T03:34:18.153Z,1018.7
2017-12-24T03:34:58.687Z,1018.72
2017-12-24T03:35:39.227Z,1018.72
2017-12-24T03:36:19.782Z,1018.69
2017-12-24T03:37:00.349Z,1018.7
2017-12-24T03:37:40.867Z,1018.66
2017-12-24T03:38:21.436Z,1018.63
2017-12-24T03:39:01.953Z,1018.7
2017-12-24T03:39:42.499Z,1018.61
2017-12-24T03:40:23.050Z,1018.61
2017-12-24T03:41:03.588Z,1018.68
2017-12-24T03:41:44.140Z,1018.7
2017-12-24T03:42:24.660Z,1018.69
2017-12-24T03:43:05.223Z,1018.63
2017-12-24T03:43:45.794Z,1018.67
2017-12-24T03:44:26.357Z,1018.72
2017-12-24T03:45:06.890Z,1018.68
2017-12-24T03:45:47.451Z,1018.65
2017-12-24T03:46:28.014Z,1018.7
2017-12-24T03:47:08.559Z,1018.63
2017-12-24T03:47:49.115Z,1018.72
2017-12-24T03:48:29.655Z,1018.68
2017-12-24T03:49:10.213Z,1018.67
2017-12-24T03:49:50.783Z,1018.71
2017-12-24T03:50:31.313Z,1018.71
2017-12-24T03:51:11.876Z,1018.7
2017-12-24T03:51:52.389Z,1018.68
2017-12-24T03:52:32.896Z,1018.6
2017-12-24T03:53:13.460Z,1018.62
2017-12-24T03:53:54.006Z,1018.6
2017-12-24T03:54:34.569Z,1018.67
2017-12-24T03:55:15.090Z,1018.64
2017-12-24T03:55:55.672Z,1018.56
2017-12-24T03:56:36.244Z,1018.56
2017-12-24T03:57:16.761Z,1018.55
2017-12-24T03:57:57.321Z,1018.56
2017-12-24T03:58:37.889Z,1018.56
2017-12-24T03:59:18.444Z,1018.54
2017-12-24T03:59:58.960Z,1018.54
2017-12-24T04:00:39.513Z,1018.54
2017-12-24T04:01:20.032Z,1018.56
2017-12-24T04:02:00.585Z,1018.54
2017-12-24T04:02:41.159Z,1018.53
2017-12-24T04:03:21.719Z,1018.53
2017-12-24T04:04:03.144Z,1018.5
2017-12-24T04:04:43.711Z,1018.52
2017-12-24T04:05:24.256Z,1018.51
2017-12-24T04:06:04.797Z,1018.49
2017-12-24T04:06:45.321Z,1018.52
2017-12-24T04:07:25.877Z,1018.64
2017-12-24T04:08:06.440Z,1018.62
2017-12-24T04:08:46.984Z,1018.54
2017-12-24T04:09:27.533Z,1018.59
2017-12-24T04:10:08.092Z,1018.6
2017-12-24T04:10:48.636Z,1018.64
2017-12-24T04:11:29.166Z,1018.65
2017-12-24T04:12:09.699Z,1018.61
2017-12-24T04:12:50.290Z,1018.62
2017-12-24T04:13:30.803Z,1018.58
2017-12-24T04:14:11.386Z,1018.56
2017-12-24T04:14:51.896Z,1018.57
2017-12-24T04:15:32.423Z,1018.58
2017-12-24T04:16:12.957Z,1018.48
2017-12-24T04:16:53.485Z,1018.49
2017-12-24T04:17:34.015Z,1018.46
2017-12-24T04:18:14.526Z,1018.55
2017-12-24T04:18:55.060Z,1018.51
2017-12-24T04:19:35.610Z,1018.46
2017-12-24T04:20:16.146Z,1018.51
2017-12-24T04:20:56.738Z,1018.47
2017-12-24T04:21:37.233Z,1018.51
2017-12-24T04:22:17.775Z,1018.45
2017-12-24T04:22:58.351Z,1018.51
2017-12-24T04:23:38.864Z,1018.44
2017-12-24T04:24:19.415Z,1018.49
2017-12-24T04:24:59.980Z,1018.46
2017-12-24T04:25:40.526Z,1018.45
2017-12-24T04:26:21.074Z,1018.41
2017-12-24T04:27:01.631Z,1018.37
2017-12-24T04:27:42.171Z,1018.38
2017-12-24T04:28:22.736Z,1018.39
2017-12-24T04:29:03.300Z,1018.34
2017-12-24T04:29:43.825Z,1018.33
2017-12-24T04:30:24.322Z,1018.31
2017-12-24T04:31:04.865Z,1018.31
2017-12-24T04:31:45.416Z,1018.28
2017-12-24T04:32:25.941Z,1018.28
2017-12-24T04:33:06.505Z,1018.29
2017-12-24T04:33:47.021Z,1018.33
2017-12-24T04:34:27.591Z,1018.35
2017-12-24T04:35:08.093Z,1018.31
2017-12-24T04:35:48.637Z,1018.32
2017-12-24T04:36:29.171Z,1018.27
2017-12-24T04:37:09.684Z,1018.27
2017-12-24T04:37:50.272Z,1018.35
2017-12-24T04:38:30.830Z,1018.35
2017-12-24T04:39:11.356Z,1018.38
2017-12-24T04:39:51.905Z,1018.29
2017-12-24T04:40:32.474Z,1018.34
2017-12-24T04:41:13.040Z,1018.37
2017-12-24T04:41:53.585Z,1018.33
2017-12-24T04:42:34.123Z,1018.36
2017-12-24T04:43:14.681Z,1018.39
2017-12-24T04:43:55.257Z,1018.4
2017-12-24T04:44:35.797Z,1018.4
2017-12-24T04:45:16.448Z,1018.42
2017-12-24T04:45:56.969Z,1018.44
2017-12-24T04:46:37.534Z,1018.42
2017-12-24T04:47:18.079Z,1018.49
2017-12-24T04:47:58.607Z,1018.41
2017-12-24T04:48:39.145Z,1018.43
2017-12-24T04:49:19.681Z,1018.39
2017-12-24T04:50:00.237Z,1018.41
2017-12-24T04:50:40.797Z,1018.51
2017-12-24T04:51:21.334Z,1018.42
2017-12-24T04:52:01.848Z,1018.45
2017-12-24T04:52:43.120Z,1018.48
2017-12-24T04:53:22.942Z,1018.45
2017-12-24T04:54:03.472Z,1018.48
2017-12-24T04:54:44.028Z,1018.55
2017-12-24T04:55:24.613Z,1018.5
2017-12-24T04:56:05.102Z,1018.53
2017-12-24T04:56:45.678Z,1018.54
2017-12-24T04:57:26.181Z,1018.55
2017-12-24T04:58:06.753Z,1018.5
2017-12-24T04:58:47.304Z,1018.47
2017-12-24T04:59:27.839Z,1018.48
2017-12-24T05:00:08.412Z,1018.46
2017-12-24T05:00:48.930Z,1018.54
2017-12-24T05:01:29.492Z,1018.46
2017-12-24T05:02:10.024Z,1018.52
2017-12-24T05:02:50.563Z,1018.47
2017-12-24T05:03:31.122Z,1018.5
2017-12-24T05:04:11.647Z,1018.53
2017-12-24T05:04:52.194Z,1018.5
2017-12-24T05:05:32.717Z,1018.54
2017-12-24T05:06:13.288Z,1018.54
2017-12-24T05:06:53.846Z,1018.55
2017-12-24T05:07:34.365Z,1018.54
2017-12-24T05:08:14.904Z,1018.49
2017-12-24T05:08:55.415Z,1018.47
2017-12-24T05:09:35.951Z,1018.52
2017-12-24T05:10:16.528Z,1018.49
2017-12-24T05:10:57.045Z,1018.49
2017-12-24T05:11:37.560Z,1018.48
2017-12-24T05:12:18.097Z,1018.5
2017-12-24T05:12:58.638Z,1018.53
2017-12-24T05:13:39.183Z,1018.5
2017-12-24T05:14:19.783Z,1018.51
2017-12-24T05:15:00.310Z,1018.54
2017-12-24T05:15:40.873Z,1018.52
2017-12-24T05:16:21.499Z,1018.54
2017-12-24T05:17:02.069Z,1018.57
2017-12-24T05:17:42.577Z,1018.54
2017-12-24T05:18:23.086Z,1018.56
2017-12-24T05:19:03.654Z,1018.55
2017-12-24T05:19:44.192Z,1018.56
2017-12-24T05:20:24.743Z,1018.54
2017-12-24T05:21:05.285Z,1018.47
2017-12-24T05:21:45.849Z,1018.45
2017-12-24T05:22:26.379Z,1018.49
2017-12-24T05:23:06.923Z,1018.48
2017-12-24T05:23:47.464Z,1018.48
2017-12-24T05:24:28.018Z,1018.43
2017-12-24T05:25:08.580Z,1018.37
2017-12-24T05:25:49.118Z,1018.45
2017-12-24T05:26:29.727Z,1018.43
2017-12-24T05:27:10.278Z,1018.45
2017-12-24T05:27:50.829Z,1018.45
2017-12-24T05:28:31.358Z,1018.42
2017-12-24T05:29:11.904Z,1018.42
2017-12-24T05:29:52.442Z,1018.42
2017-12-24T05:30:32.998Z,1018.42
2017-12-24T05:31:13.528Z,1018.42
2017-12-24T05:31:54.088Z,1018.41
2017-12-24T05:32:34.627Z,1018.39
2017-12-24T05:33:15.172Z,1018.41
2017-12-24T05:33:55.698Z,1018.4
2017-12-24T05:34:36.237Z,1018.37
2017-12-24T05:35:16.790Z,1018.35
2017-12-24T05:35:57.328Z,1018.35
2017-12-24T05:36:37.897Z,1018.34
2017-12-24T05:37:18.456Z,1018.38
2017-12-24T05:37:58.990Z,1018.35
2017-12-24T05:38:39.529Z,1018.34
2017-12-24T05:39:20.058Z,1018.38
2017-12-24T05:40:00.609Z,1018.32
2017-12-24T05:40:41.147Z,1018.34
2017-12-24T05:41:21.656Z,1018.34
2017-12-24T05:42:02.227Z,1018.42
2017-12-24T05:42:42.737Z,1018.38
2017-12-24T05:43:23.264Z,1018.36
2017-12-24T05:44:03.806Z,1018.38
2017-12-24T05:44:44.363Z,1018.31
2017-12-24T05:45:24.896Z,1018.37
2017-12-24T05:46:05.453Z,1018.35
2017-12-24T05:46:46.007Z,1018.36
2017-12-24T05:47:26.581Z,1018.36
2017-12-24T05:48:07.154Z,1018.33
2017-12-24T05:48:47.667Z,1018.4
2017-12-24T05:49:28.290Z,1018.31
2017-12-24T05:50:09.426Z,1018.37
2017-12-24T05:50:49.957Z,1018.34
2017-12-24T05:51:30.516Z,1018.31
2017-12-24T05:52:11.045Z,1018.29
2017-12-24T05:52:51.572Z,1018.26
2017-12-24T05:53:32.125Z,1018.25
2017-12-24T05:54:12.660Z,1018.25
2017-12-24T05:54:53.224Z,1018.23
2017-12-24T05:55:33.749Z,1018.13
2017-12-24T05:56:14.301Z,1018.17
2017-12-24T05:56:54.830Z,1018.02
2017-12-24T05:57:35.375Z,1018.17
2017-12-24T05:58:15.903Z,1018.11
2017-12-24T05:58:56.421Z,1018.1
2017-12-24T05:59:36.981Z,1018.2
2017-12-24T06:00:17.523Z,1018.17
2017-12-24T06:00:58.078Z,1018.13
2017-12-24T06:01:38.626Z,1018.21
2017-12-24T06:02:19.183Z,1018.12
2017-12-24T06:02:59.733Z,1018.12
2017-12-24T06:03:40.290Z,1018.1
2017-12-24T06:04:20.833Z,1018.13
2017-12-24T06:05:01.384Z,1018.13
2017-12-24T06:05:41.915Z,1018.08
2017-12-24T06:06:22.465Z,1018.09
2017-12-24T06:07:03.000Z,1018.14
2017-12-24T06:07:43.543Z,1018.16
2017-12-24T06:08:24.101Z,1018.14
2017-12-24T06:09:04.688Z,1018.13
2017-12-24T06:09:45.199Z,1018.1
2017-12-24T06:10:25.744Z,1018.08
2017-12-24T06:11:06.278Z,1018.13
2017-12-24T06:11:46.871Z,1018.09
2017-12-24T06:12:27.405Z,1018.13
2017-12-24T06:13:07.975Z,1018.09
2017-12-24T06:13:48.484Z,1018.11
2017-12-24T06:14:29.025Z,1018.1
2017-12-24T06:15:09.568Z,1018.08
2017-12-24T06:15:50.090Z,1018.08
2017-12-24T06:16:30.638Z,1018.07
2017-12-24T06:17:11.162Z,1018.05
2017-12-24T06:17:51.667Z,1018.05
2017-12-24T06:18:32.259Z,1018.07
2017-12-24T06:19:12.810Z,1018.03
2017-12-24T06:19:53.358Z,1018.05
2017-12-24T06:20:33.917Z,1018.05
2017-12-24T06:21:14.475Z,1017.99
2017-12-24T06:21:55.012Z,1018.02
2017-12-24T06:22:35.551Z,1017.96
2017-12-24T06:23:16.075Z,1018.03
2017-12-24T06:23:56.618Z,1018.03
2017-12-24T06:24:37.119Z,1017.99
2017-12-24T06:25:17.702Z,1018.05
2017-12-24T06:25:58.208Z,1018.01
2017-12-24T06:26:38.737Z,1018.04
2017-12-24T06:27:19.269Z,1018.05
2017-12-24T06:27:59.831Z,1018.06
2017-12-24T06:28:40.353Z,1018.06
2017-12-24T06:29:20.885Z,1018.12
2017-12-24T06:30:01.450Z,1018.06
2017-12-24T06:30:42.020Z,1018.1
2017-12-24T06:31:22.578Z,1018.06
2017-12-24T06:32:03.080Z,1018.07
2017-12-24T06:32:43.635Z,1018.02
2017-12-24T06:33:24.189Z,1018
2017-12-24T06:34:04.696Z,1018.08
2017-12-24T06:34:45.275Z,1018.01
2017-12-24T06:35:26.652Z,1018.02
2017-12-24T06:36:06.365Z,1018.05
2017-12-24T06:36:46.927Z,1018.02
2017-12-24T06:37:27.467Z,1018.04
2017-12-24T06:38:08.009Z,1018.08
2017-12-24T06:38:48.529Z,1018.07
2017-12-24T06:39:29.059Z,1018.01
2017-12-24T06:40:09.602Z,1018.09
2017-12-24T06:40:50.128Z,1018.04
2017-12-24T06:41:30.679Z,1018.07
2017-12-24T06:42:11.234Z,1018.04
2017-12-24T06:42:51.811Z,1018.05
2017-12-24T06:43:32.317Z,1018.09
2017-12-24T06:44:12.904Z,1018.07
2017-12-24T06:44:53.448Z,1018
2017-12-24T06:45:33.997Z,1018.04
2017-12-24T06:46:14.534Z,1018.03
2017-12-24T06:46:55.057Z,1018.02
2017-12-24T06:47:35.594Z,1018.02
2017-12-24T06:48:16.143Z,1018
2017-12-24T06:48:56.696Z,1018.02
2017-12-24T06:49:37.270Z,1018.01
2017-12-24T06:50:17.905Z,1017.97
2017-12-24T06:50:58.457Z,1017.94
2017-12-24T06:51:39.006Z,1017.95
2017-12-24T06:52:19.534Z,1018
2017-12-24T06:53:00.085Z,1017.93
2017-12-24T06:53:40.624Z,1017.92
2017-12-24T06:54:21.190Z,1017.9
2017-12-24T06:55:01.723Z,1017.87
2017-12-24T06:55:42.264Z,1017.85
2017-12-24T06:56:22.819Z,1017.91
2017-12-24T06:57:03.358Z,1017.88
2017-12-24T06:57:43.885Z,1017.89
2017-12-24T06:58:24.416Z,1017.86
2017-12-24T06:59:04.999Z,1017.86
2017-12-24T06:59:45.565Z,1017.83
2017-12-24T07:00:26.117Z,1017.86
2017-12-24T07:01:06.641Z,1017.83
2017-12-24T07:01:47.178Z,1017.83
2017-12-24T07:02:27.733Z,1017.83
2017-12-24T07:03:08.276Z,1017.87
2017-12-24T07:03:48.827Z,1017.82
2017-12-24T07:04:29.373Z,1017.81
2017-12-24T07:05:09.903Z,1017.75
2017-12-24T07:05:50.467Z,1017.77
2017-12-24T07:06:31.023Z,1017.77
2017-12-24T07:07:11.596Z,1017.73
2017-12-24T07:07:52.123Z,1017.76
2017-12-24T07:08:32.668Z,1017.77
2017-12-24T07:09:13.217Z,1017.75
2017-12-24T07:09:53.743Z,1017.73
2017-12-24T07:10:34.330Z,1017.76
2017-12-24T07:11:14.882Z,1017.73
2017-12-24T07:11:55.436Z,1017.73
2017-12-24T07:12:35.966Z,1017.68
2017-12-24T07:13:16.513Z,1017.73
2017-12-24T07:13:57.004Z,1017.7
2017-12-24T07:14:37.532Z,1017.71
2017-12-24T07:15:18.099Z,1017.68
2017-12-24T07:15:58.614Z,1017.65
2017-12-24T07:16:39.178Z,1017.72
2017-12-24T07:17:19.736Z,1017.7
2017-12-24T07:18:00.310Z,1017.63
2017-12-24T07:18:40.833Z,1017.71
2017-12-24T07:19:21.342Z,1017.69
2017-12-24T07:20:01.883Z,1017.69
2017-12-24T07:20:42.465Z,1017.71
2017-12-24T07:21:22.982Z,1017.62
2017-12-24T07:22:03.543Z,1017.7
2017-12-24T07:22:44.033Z,1017.66
2017-12-24T07:23:24.557Z,1017.71
2017-12-24T07:24:05.142Z,1017.74
2017-12-24T07:24:45.704Z,1017.79
2017-12-24T07:25:26.257Z,1017.75
2017-12-24T07:26:06.796Z,1017.77
2017-12-24T07:26:47.312Z,1017.78
2017-12-24T07:27:27.832Z,1017.81
2017-12-24T07:28:08.369Z,1017.77
2017-12-24T07:28:48.908Z,1017.77
2017-12-24T07:29:29.457Z,1017.8
2017-12-24T07:30:09.996Z,1017.8
2017-12-24T07:30:50.558Z,1017.82
2017-12-24T07:31:31.091Z,1017.84
2017-12-24T07:32:11.632Z,1017.82
2017-12-24T07:32:52.182Z,1017.89
2017-12-24T07:33:32.687Z,1017.83
2017-12-24T07:34:13.280Z,1017.89
2017-12-24T07:34:53.779Z,1017.83
2017-12-24T07:35:34.341Z,1017.86
2017-12-24T07:36:14.880Z,1017.81
2017-12-24T07:36:55.434Z,1017.87
2017-12-24T07:37:35.961Z,1017.88
2017-12-24T07:38:16.504Z,1017.89
2017-12-24T07:38:57.016Z,1017.88
2017-12-24T07:39:37.548Z,1017.86
2017-12-24T07:40:18.080Z,1017.85
2017-12-24T07:40:58.647Z,1017.84
2017-12-24T07:41:39.203Z,1017.83
2017-12-24T07:42:19.781Z,1017.83
2017-12-24T07:43:00.333Z,1017.85
2017-12-24T07:43:40.876Z,1017.84
2017-12-24T07:44:21.425Z,1017.76
2017-12-24T07:45:01.985Z,1017.77
2017-12-24T07:45:42.537Z,1017.73
2017-12-24T07:46:23.064Z,1017.76
2017-12-24T07:47:03.625Z,1017.76
2017-12-24T07:47:44.257Z,1017.76
2017-12-24T07:48:24.779Z,1017.75
2017-12-24T07:49:05.327Z,1017.74
2017-12-24T07:49:46.350Z,1017.71
2017-12-24T07:50:26.906Z,1017.73
2017-12-24T07:51:07.452Z,1017.71
2017-12-24T07:51:48.000Z,1017.66
2017-12-24T07:52:28.507Z,1017.7
2017-12-24T07:53:09.044Z,1017.74
2017-12-24T07:53:49.594Z,1017.73
2017-12-24T07:54:30.118Z,1017.73
2017-12-24T07:55:10.655Z,1017.75
2017-12-24T07:55:51.199Z,1017.76
2017-12-24T07:56:31.745Z,1017.82
2017-12-24T07:57:13.212Z,1017.73
2017-12-24T07:57:52.833Z,1017.8
2017-12-24T07:58:33.358Z,1017.81
2017-12-24T07:59:13.901Z,1017.85
2017-12-24T07:59:54.457Z,1017.85
2017-12-24T08:00:35.005Z,1017.88
2017-12-24T08:01:15.537Z,1017.86
2017-12-24T08:01:56.082Z,1017.84
2017-12-24T08:02:36.632Z,1017.86
2017-12-24T08:03:17.191Z,1017.91
2017-12-24T08:03:57.743Z,1017.83
2017-12-24T08:04:38.275Z,1017.87
2017-12-24T08:05:18.895Z,1017.84
2017-12-24T08:05:59.380Z,1017.84
2017-12-24T08:06:39.930Z,1017.83
2017-12-24T08:07:20.445Z,1017.91
2017-12-24T08:08:01.075Z,1017.86
2017-12-24T08:08:41.630Z,1017.83
2017-12-24T08:09:22.198Z,1017.85
2017-12-24T08:10:02.738Z,1017.88
2017-12-24T08:10:43.257Z,1017.86
2017-12-24T08:11:23.761Z,1017.83
2017-12-24T08:12:04.317Z,1017.79